Time;durP1;ratioP1;P1;durP2;ratioP2;P2;SDS_P1;SDS_P2;PMS_P1;PMS_P2;Temp;Humidity;BMP_temperature;BMP_pressure;BME280_temperature;BME280_humidity;BME280_pressure;Samples;Min_cycle;Max_cycle;Signal;HPM_P1;HPM_P2
2024/01/01 00:00:06;;;;;;;25.55;12.93;;;;;;;0.61;86.11;100400.37;1619527;88;21078;-72
2024/01/01 00:02:37;;;;;;;31.60;12.65;;;;;;;0.58;86.21;100390.34;1592417;90;21083;-70
2024/01/01 00:05:07;;;;;;;29.65;13.62;;;;;;;0.57;86.48;100381.41;1619674;88;21094;-72
2024/01/01 00:07:35;;;;;;;32.33;14.55;;;;;;;0.58;86.62;100380.91;1592950;90;21127;-71
2024/01/01 00:10:05;;;;;;;23.83;11.45;;;;;;;0.58;86.76;100383.11;1611180;87;21154;-71
2024/01/01 00:12:34;;;;;;;21.15;11.25;;;;;;;0.60;86.75;100374.89;1577589;91;21116;-70
2024/01/01 00:15:03;;;;;;;23.47;11.40;;;;;;;0.60;86.60;100374.89;1603777;89;21067;-71
2024/01/01 00:17:32;;;;;;;25.52;11.00;;;;;;;0.55;86.46;100373.09;1577528;91;21088;-72
2024/01/01 00:20:00;;;;;;;25.60;11.20;;;;;;;0.51;86.60;100374.34;1603841;89;21071;-70
2024/01/01 00:22:28;;;;;;;26.93;11.28;;;;;;;0.49;86.82;100379.02;1632700;88;21633;-71
2024/01/01 00:24:58;;;;;;;27.00;11.15;;;;;;;0.45;87.02;100377.58;1632640;88;21086;-70
2024/01/01 00:27:27;;;;;;;30.57;14.73;;;;;;;0.43;87.21;100377.71;1632952;88;21082;-71
2024/01/01 00:29:55;;;;;;;34.48;16.02;;;;;;;0.43;87.41;100376.36;1623552;88;21079;-71
2024/01/01 00:32:24;;;;;;;45.85;18.82;;;;;;;0.42;87.60;100373.31;1632984;88;21042;-70
2024/01/01 00:34:52;;;;;;;48.23;21.00;;;;;;;0.42;87.77;100378.70;1623514;88;21102;-68
2024/01/01 00:37:21;;;;;;;51.05;22.02;;;;;;;0.39;87.76;100363.29;1632875;88;21015;-71
2024/01/01 00:39:49;;;;;;;52.27;23.00;;;;;;;0.35;87.93;100353.27;1632960;88;21082;-70
2024/01/01 00:42:17;;;;;;;54.80;22.52;;;;;;;0.39;88.14;100353.36;1623484;88;21170;-70
2024/01/01 00:44:46;;;;;;;54.80;24.18;;;;;;;0.43;88.17;100353.95;1633032;88;21467;-70
2024/01/01 00:47:15;;;;;;;59.00;24.70;;;;;;;0.44;88.09;100360.55;1623596;88;21083;-70
2024/01/01 00:49:43;;;;;;;55.98;25.57;;;;;;;0.42;87.95;100363.02;1632992;86;21331;-71
2024/01/01 00:52:12;;;;;;;52.65;23.80;;;;;;;0.38;87.91;100364.28;1623705;88;21035;-72
2024/01/01 00:54:40;;;;;;;53.23;23.87;;;;;;;0.34;87.93;100365.53;1633048;88;21066;-72
2024/01/01 00:57:09;;;;;;;51.48;21.37;;;;;;;0.32;88.03;100358.93;1623588;88;21143;-71
2024/01/01 00:59:37;;;;;;;45.63;19.90;;;;;;;0.34;88.12;100360.14;1633286;88;21043;-71
2024/01/01 01:02:06;;;;;;;49.15;20.52;;;;;;;0.36;88.17;100356.82;1623534;87;21039;-70
2024/01/01 01:04:34;;;;;;;45.78;19.67;;;;;;;0.36;88.21;100358.17;1633049;88;21023;-71
2024/01/01 01:07:05;;;;;;;45.88;20.23;;;;;;;0.35;88.35;100359.16;1623696;88;21043;-71
2024/01/01 01:09:33;;;;;;;42.23;19.17;;;;;;;0.37;88.43;100346.40;1633070;87;21051;-71
2024/01/01 01:12:01;;;;;;;45.78;19.90;;;;;;;0.37;88.40;100319.45;1607361;88;21071;-71
2024/01/01 01:14:30;;;;;;;44.53;19.70;;;;;;;0.36;88.46;100322.64;1607632;88;21091;-71
2024/01/01 01:16:58;;;;;;;40.73;19.48;;;;;;;0.38;88.45;100335.98;1632868;88;21520;-70
2024/01/01 01:19:27;;;;;;;39.20;18.80;;;;;;;0.32;88.16;100340.06;1632817;88;20995;-70
2024/01/01 01:21:55;;;;;;;42.10;19.23;;;;;;;0.27;88.07;100339.12;1632799;88;21451;-70
2024/01/01 01:24:24;;;;;;;45.95;19.92;;;;;;;0.23;88.07;100336.83;1632722;87;21051;-70
2024/01/01 01:26:52;;;;;;;39.60;19.12;;;;;;;0.23;88.35;100332.29;1632748;88;21466;-71
2024/01/01 01:29:21;;;;;;;44.00;19.75;;;;;;;0.25;88.58;100328.97;1632731;88;21091;-70
2024/01/01 01:31:50;;;;;;;37.95;17.75;;;;;;;0.29;88.76;100326.37;1632870;87;21078;-70
2024/01/01 01:34:18;;;;;;;36.53;18.12;;;;;;;0.34;88.96;100319.72;1632770;88;21066;-70
2024/01/01 01:36:47;;;;;;;46.77;21.17;;;;;;;0.36;88.95;100321.30;1632796;87;20995;-70
2024/01/01 01:39:15;;;;;;;45.45;21.02;;;;;;;0.33;88.94;100313.48;1632880;88;21019;-70
2024/01/01 01:41:44;;;;;;;43.38;19.90;;;;;;;0.33;89.02;100330.99;1632788;87;21059;-69
2024/01/01 01:44:13;;;;;;;46.35;20.85;;;;;;;0.33;89.07;100330.14;1632810;88;21011;-70
2024/01/01 01:46:41;;;;;;;41.00;19.30;;;;;;;0.34;89.14;100322.42;1632762;88;21035;-70
2024/01/01 01:49:10;;;;;;;36.20;18.00;;;;;;;0.34;89.19;100315.68;1632718;88;21094;-71
2024/01/01 01:51:39;;;;;;;38.58;16.65;;;;;;;0.33;89.37;100313.97;1633143;88;21094;-71
2024/01/01 01:54:08;;;;;;;38.55;17.67;;;;;;;0.36;89.65;100313.70;1632734;88;21071;-70
2024/01/01 01:56:37;;;;;;;33.75;16.97;;;;;;;0.43;89.87;100310.83;1632763;88;21090;-71
2024/01/01 01:59:05;;;;;;;34.30;17.30;;;;;;;0.47;90.06;100321.20;1632809;88;21055;-70
2024/01/01 02:01:34;;;;;;;39.63;16.37;;;;;;;0.51;90.20;100317.74;1632941;88;21069;-69
2024/01/01 02:04:03;;;;;;;39.15;16.65;;;;;;;0.55;90.26;100316.48;1632991;88;21027;-70
2024/01/01 02:06:32;;;;;;;34.63;14.78;;;;;;;0.57;90.36;100299.67;1633096;87;21015;-71
2024/01/01 02:09:01;;;;;;;31.52;15.50;;;;;;;0.61;90.49;100291.67;1632682;87;21576;-70
2024/01/01 02:11:30;;;;;;;31.90;15.50;;;;;;;0.64;90.51;100288.21;1632712;87;21107;-70
2024/01/01 02:14:14;;;;;;;29.42;14.68;;;;;;;0.63;90.62;100291.05;1632875;88;21052;-70
2024/01/01 02:16:44;;;;;;;34.30;15.13;;;;;;;0.62;90.84;100278.06;1632769;87;21027;-70
2024/01/01 02:19:24;;;;;;;33.00;15.28;;;;;;;0.67;91.09;100271.44;1542735;92;21092;-71
2024/01/01 02:21:53;;;;;;;29.85;13.83;;;;;;;0.70;91.19;100272.02;1542791;93;21651;-70
2024/01/01 02:24:22;;;;;;;23.30;12.20;;;;;;;0.77;91.34;100266.92;1542773;93;21536;-70
2024/01/01 02:26:50;;;;;;;23.45;12.85;;;;;;;0.81;91.54;100262.45;1542733;93;21153;-71
2024/01/01 02:29:19;;;;;;;21.55;11.88;;;;;;;0.89;91.72;100244.23;1542742;93;21103;-69
2024/01/01 02:31:49;;;;;;;23.20;11.70;;;;;;;0.95;91.74;100239.63;1542877;93;21087;-71
2024/01/01 02:34:18;;;;;;;22.77;11.15;;;;;;;0.98;91.67;100235.80;1542759;92;21130;-71
2024/01/01 02:36:47;;;;;;;19.52;10.93;;;;;;;0.98;91.60;100243.89;1565967;88;21074;-71
2024/01/01 02:39:15;;;;;;;21.27;10.65;;;;;;;1.00;91.64;100244.59;1632813;88;21097;-70
2024/01/01 02:41:44;;;;;;;20.90;10.35;;;;;;;1.02;91.69;100234.52;1632763;88;21042;-70
2024/01/01 02:44:12;;;;;;;21.62;10.20;;;;;;;1.03;91.63;100235.73;1632694;88;21071;-70
2024/01/01 02:46:40;;;;;;;22.77;10.98;;;;;;;1.04;91.64;100226.64;1632769;88;21037;-69
2024/01/01 02:49:10;;;;;;;18.20;9.60;;;;;;;1.06;91.58;100221.95;1632698;88;21148;-72
2024/01/01 02:51:44;;;;;;;19.70;10.35;;;;;;;1.05;91.54;100224.30;1607768;88;21083;-70
2024/01/01 02:54:13;;;;;;;19.67;10.00;;;;;;;1.08;91.66;100227.21;1632923;88;21070;-70
2024/01/01 02:56:41;;;;;;;21.10;10.18;;;;;;;1.11;91.74;100223.73;1632842;88;21011;-71
2024/01/01 02:59:11;;;;;;;18.85;9.93;;;;;;;1.14;91.77;100221.25;1632707;88;21101;-69
2024/01/01 03:01:39;;;;;;;20.80;9.63;;;;;;;1.16;91.79;100216.06;1607658;88;21090;-70
2024/01/01 03:04:08;;;;;;;20.08;9.98;;;;;;;1.20;91.80;100207.19;1632978;88;21023;-71
2024/01/01 03:06:36;;;;;;;16.10;9.23;;;;;;;1.20;91.69;100209.39;1633025;88;21059;-71
2024/01/01 03:09:04;;;;;;;22.35;9.88;;;;;;;1.21;91.68;100200.80;1632918;87;21046;-71
2024/01/01 03:11:33;;;;;;;18.75;9.68;;;;;;;1.22;91.61;100207.40;1632905;86;21059;-71
2024/01/01 03:14:01;;;;;;;18.00;10.20;;;;;;;1.21;91.54;100202.14;1632950;88;21046;-71
2024/01/01 03:16:30;;;;;;;20.45;9.73;;;;;;;1.17;91.60;100206.98;1623697;87;21094;-70
2024/01/01 03:18:58;;;;;;;17.45;9.95;;;;;;;1.19;91.77;100191.50;1623819;88;21071;-71
2024/01/01 03:21:29;;;;;;;20.90;10.03;;;;;;;1.21;91.77;100188.66;1633232;86;21095;-70
2024/01/01 03:23:57;;;;;;;22.62;9.73;;;;;;;1.20;91.88;100189.65;1623586;88;21150;-71
2024/01/01 03:26:26;;;;;;;20.37;10.53;;;;;;;1.22;92.01;100191.20;1605588;88;21114;-69
2024/01/01 03:28:54;;;;;;;19.50;10.70;;;;;;;1.26;92.14;100186.37;1623637;87;21076;-70
2024/01/01 03:31:23;;;;;;;21.30;11.05;;;;;;;1.29;92.16;100183.39;1633010;87;21042;-70
2024/01/01 03:33:51;;;;;;;19.32;10.53;;;;;;;1.30;92.20;100172.98;1623549;87;21489;-70
2024/01/01 03:36:19;;;;;;;19.37;10.98;;;;;;;1.34;92.35;100173.55;1632902;88;21099;-70
2024/01/01 03:38:48;;;;;;;20.88;11.00;;;;;;;1.39;92.45;100165.87;1632888;88;21062;-72
2024/01/01 03:41:16;;;;;;;23.57;10.90;;;;;;;1.40;92.36;100163.02;1623663;88;21063;-70
2024/01/01 03:43:45;;;;;;;25.30;11.57;;;;;;;1.39;92.29;100154.57;1633159;87;21011;-70
2024/01/01 03:46:14;;;;;;;23.65;11.30;;;;;;;1.39;92.37;100153.72;1623883;88;21051;-71
2024/01/01 03:48:42;;;;;;;23.90;11.68;;;;;;;1.40;92.34;100148.17;1632895;88;21039;-71
2024/01/01 03:51:11;;;;;;;25.23;11.75;;;;;;;1.41;92.23;100149.88;1632875;86;21078;-72
2024/01/01 03:53:40;;;;;;;23.22;11.63;;;;;;;1.40;92.24;100158.97;1612992;88;21071;-71
2024/01/01 03:56:08;;;;;;;20.80;11.25;;;;;;;1.41;92.27;100149.88;1623539;88;21023;-70
2024/01/01 03:58:37;;;;;;;26.80;12.13;;;;;;;1.42;92.24;100150.23;1623598;88;21017;-70
2024/01/01 04:01:15;;;;;;;24.77;12.35;;;;;;;1.43;92.19;100141.63;1632931;88;21059;-70
2024/01/01 04:03:44;;;;;;;25.10;12.15;;;;;;;1.43;92.16;100137.59;1632974;88;21027;-71
2024/01/01 04:06:13;;;;;;;22.52;12.50;;;;;;;1.42;92.12;100130.48;1623528;87;21039;-71
2024/01/01 04:08:41;;;;;;;24.18;11.83;;;;;;;1.43;92.22;100128.98;1633005;88;21065;-72
2024/01/01 04:11:10;;;;;;;23.30;11.63;;;;;;;1.45;92.30;100129.69;1623635;87;21087;-70
2024/01/01 04:13:38;;;;;;;19.60;10.85;;;;;;;1.48;92.36;100118.60;1633054;88;21074;-70
2024/01/01 04:16:08;;;;;;;19.23;10.05;;;;;;;1.49;92.35;100114.91;1612924;88;21018;-70
2024/01/01 04:18:36;;;;;;;16.80;9.35;;;;;;;1.48;92.36;100112.36;1633004;86;21042;-70
2024/01/01 04:21:06;;;;;;;19.73;9.15;;;;;;;1.51;92.46;100114.27;1623609;88;21036;-70
2024/01/01 04:23:34;;;;;;;22.10;10.23;;;;;;;1.53;92.53;100104.66;1632996;86;21026;-70
2024/01/01 04:26:04;;;;;;;18.23;9.60;;;;;;;1.54;92.56;100107.22;1623771;88;21059;-72
2024/01/01 04:28:32;;;;;;;19.37;10.13;;;;;;;1.54;92.56;100103.17;1623621;88;21048;-71
2024/01/01 04:31:01;;;;;;;18.67;9.10;;;;;;;1.56;92.70;100095.77;1632970;88;21078;-71
2024/01/01 04:33:30;;;;;;;20.55;9.98;;;;;;;1.59;92.70;100091.92;1633049;88;21331;-71
2024/01/01 04:35:58;;;;;;;19.77;10.05;;;;;;;1.62;92.74;100090.28;1633034;88;21194;-70
2024/01/01 04:38:26;;;;;;;20.88;10.35;;;;;;;1.63;92.75;100091.98;1633384;88;21111;-70
2024/01/01 04:40:55;;;;;;;18.15;9.20;;;;;;;1.67;92.86;100086.63;1623688;88;21031;-69
2024/01/01 04:43:24;;;;;;;18.85;8.60;;;;;;;1.70;92.80;100086.34;1648534;87;21128;-69
2024/01/01 04:45:52;;;;;;;16.37;8.23;;;;;;;1.71;92.74;100083.98;1632976;88;21550;-70
2024/01/01 04:48:22;;;;;;;17.37;9.00;;;;;;;1.73;92.76;100080.64;1633347;88;21431;-69
2024/01/01 04:50:50;;;;;;;17.40;9.18;;;;;;;1.76;92.82;100074.09;1623546;88;21059;-68
2024/01/01 04:53:19;;;;;;;16.05;8.58;;;;;;;1.78;92.78;100068.03;1633205;86;21030;-68
2024/01/01 04:55:47;;;;;;;17.80;9.63;;;;;;;1.80;92.80;100068.23;1656226;86;21074;-69
2024/01/01 04:58:16;;;;;;;18.35;9.43;;;;;;;1.78;92.72;100065.34;1633326;88;21098;-70
2024/01/01 05:00:45;;;;;;;18.85;8.85;;;;;;;1.77;92.68;100057.73;1623602;87;21027;-70
2024/01/01 05:03:13;;;;;;;22.50;8.60;;;;;;;1.77;92.72;100050.13;1633102;86;21094;-72
2024/01/01 05:05:41;;;;;;;15.80;9.05;;;;;;;1.79;92.70;100052.18;1633104;88;21046;-70
2024/01/01 05:08:10;;;;;;;18.00;9.00;;;;;;;1.79;92.69;100049.48;1623599;88;21071;-70
2024/01/01 05:10:40;;;;;;;16.27;9.33;;;;;;;1.78;92.68;100052.68;1632368;87;21050;-70
2024/01/01 05:13:09;;;;;;;17.52;9.68;;;;;;;1.79;92.73;100049.48;1624185;88;21094;-69
2024/01/01 05:15:39;;;;;;;16.60;8.60;;;;;;;1.80;92.72;100048.48;1624190;88;21078;-70
2024/01/01 05:18:08;;;;;;;16.90;9.28;;;;;;;1.81;92.71;100040.22;1624197;88;21023;-69
2024/01/01 05:20:38;;;;;;;16.77;9.00;;;;;;;1.79;92.67;100019.77;1624034;88;21653;-71
2024/01/01 05:23:07;;;;;;;18.98;8.75;;;;;;;1.79;92.69;100012.52;1624140;88;21439;-70
2024/01/01 05:25:36;;;;;;;17.52;8.95;;;;;;;1.82;92.72;100018.11;1624111;88;21071;-71
2024/01/01 05:28:07;;;;;;;18.07;8.88;;;;;;;1.84;92.70;100022.87;1624095;88;21483;-71
2024/01/01 05:30:36;;;;;;;16.27;8.53;;;;;;;1.88;92.70;100036.42;1623964;88;21507;-72
2024/01/01 05:33:05;;;;;;;20.88;9.35;;;;;;;1.90;92.71;100047.42;1623997;88;21052;-70
2024/01/01 05:35:36;;;;;;;19.98;9.85;;;;;;;1.96;92.65;100053.26;1624118;88;21470;-71
2024/01/01 05:38:05;;;;;;;20.50;9.65;;;;;;;1.96;92.40;100047.86;1624068;88;21043;-69
2024/01/01 05:40:34;;;;;;;21.25;9.75;;;;;;;1.94;92.30;100041.22;1624179;88;21043;-70
2024/01/01 05:43:03;;;;;;;18.75;9.38;;;;;;;1.93;92.24;100034.12;1623992;88;21015;-68
2024/01/01 05:45:31;;;;;;;20.50;9.40;;;;;;;1.93;92.29;100034.12;1624011;88;21080;-71
2024/01/01 05:48:00;;;;;;;21.37;9.78;;;;;;;1.94;92.26;100025.01;1624068;88;21051;-71
2024/01/01 05:50:30;;;;;;;17.77;10.03;;;;;;;1.96;92.23;100030.30;1624324;88;21078;-70
2024/01/01 05:52:59;;;;;;;24.40;10.85;;;;;;;1.98;92.20;100028.29;1624016;88;21080;-70
2024/01/01 05:55:27;;;;;;;28.10;12.40;;;;;;;1.99;92.24;100025.44;1624152;88;21004;-71
2024/01/01 05:57:56;;;;;;;28.60;12.05;;;;;;;2.00;92.17;100034.39;1623990;88;21056;-70
2024/01/01 06:00:26;;;;;;;21.42;10.72;;;;;;;2.00;92.18;100043.84;1624324;88;21035;-69
2024/01/01 06:02:55;;;;;;;26.55;12.00;;;;;;;2.02;92.21;100026.98;1624007;88;21471;-71
2024/01/01 06:05:23;;;;;;;22.75;10.93;;;;;;;2.03;92.19;100030.88;1624069;88;21043;-70
2024/01/01 06:07:52;;;;;;;28.80;11.40;;;;;;;2.05;92.24;100032.08;1624076;88;21504;-71
2024/01/01 06:10:20;;;;;;;25.95;10.48;;;;;;;2.08;92.22;100036.68;1624099;88;21099;-71
2024/01/01 06:12:49;;;;;;;19.20;9.73;;;;;;;2.12;92.19;100029.97;1623871;87;21019;-71
2024/01/01 06:15:18;;;;;;;19.07;9.95;;;;;;;2.13;91.99;100025.41;1624069;88;21087;-70
2024/01/01 06:17:46;;;;;;;21.55;9.60;;;;;;;2.12;92.04;100031.82;1624037;88;21031;-71
2024/01/01 06:20:15;;;;;;;18.40;9.70;;;;;;;2.16;92.14;100028.66;1624092;88;21079;-71
2024/01/01 06:22:43;;;;;;;26.52;10.78;;;;;;;2.20;92.06;100024.65;1624158;88;21027;-70
2024/01/01 06:25:12;;;;;;;17.55;9.50;;;;;;;2.23;91.91;100023.49;1623957;88;21023;-72
2024/01/01 06:27:41;;;;;;;19.17;9.70;;;;;;;2.27;91.81;100021.33;1624143;88;21019;-69
2024/01/01 06:30:09;;;;;;;23.22;10.88;;;;;;;2.30;91.67;100017.81;1623999;88;21036;-72
2024/01/01 06:32:38;;;;;;;38.13;15.20;;;;;;;2.30;91.50;100009.71;1624155;88;21019;-69
2024/01/01 06:35:10;;;;;;;37.20;15.38;;;;;;;2.31;91.42;100011.91;1623956;88;21512;-71
2024/01/01 06:37:39;;;;;;;39.60;16.37;;;;;;;2.32;91.29;100001.45;1623956;88;20999;-71
2024/01/01 06:40:08;;;;;;;28.25;13.03;;;;;;;2.33;91.19;100001.80;1623976;88;21256;-69
2024/01/01 06:42:37;;;;;;;20.25;9.25;;;;;;;2.33;91.09;100000.44;1624306;88;21059;-69
2024/01/01 06:45:09;;;;;;;14.73;7.05;;;;;;;2.35;91.07;99995.22;1623965;88;21003;-71
2024/01/01 06:47:38;;;;;;;13.85;7.83;;;;;;;2.35;90.89;99994.37;1623967;88;21027;-71
2024/01/01 06:50:07;;;;;;;13.18;7.10;;;;;;;2.35;90.87;99991.17;1624061;88;21066;-72
2024/01/01 06:52:36;;;;;;;17.10;7.00;;;;;;;2.36;90.86;99994.22;1624241;88;21475;-70
2024/01/01 06:55:06;;;;;;;15.78;8.40;;;;;;;2.37;90.77;99983.75;1623982;88;21456;-72
2024/01/01 06:57:34;;;;;;;14.10;7.42;;;;;;;2.38;90.68;99978.70;1624032;88;21087;-70
2024/01/01 07:00:04;;;;;;;15.60;7.78;;;;;;;2.39;90.64;99984.95;1641395;86;21500;-70
2024/01/01 07:02:33;;;;;;;14.53;7.33;;;;;;;2.40;90.60;99969.92;1624173;88;21199;-72
2024/01/01 07:05:02;;;;;;;15.40;7.25;;;;;;;2.40;90.49;99962.31;1624008;88;21057;-71
2024/01/01 07:07:31;;;;;;;19.37;8.83;;;;;;;2.40;90.48;99962.31;1599394;88;21079;-70
2024/01/01 07:10:00;;;;;;;14.60;7.42;;;;;;;2.41;90.42;99951.85;1623961;88;21087;-70
2024/01/01 07:12:28;;;;;;;15.03;8.18;;;;;;;2.39;90.41;99952.51;1624059;86;21487;-71
2024/01/01 07:14:56;;;;;;;14.83;7.58;;;;;;;2.43;90.52;99947.13;1624079;88;21431;-73
2024/01/01 07:17:25;;;;;;;15.80;7.30;;;;;;;2.46;90.51;99941.41;1599096;88;21469;-72
2024/01/01 07:19:54;;;;;;;14.33;7.20;;;;;;;2.48;90.35;99943.45;1624189;88;21072;-72
2024/01/01 07:22:22;;;;;;;13.70;7.60;;;;;;;2.46;90.31;99950.38;1599147;88;21035;-72
2024/01/01 07:24:50;;;;;;;12.65;7.08;;;;;;;2.43;90.29;99942.58;1623952;88;21084;-70
2024/01/01 07:27:19;;;;;;;12.07;7.30;;;;;;;2.42;90.33;99942.73;1598894;88;21455;-69
2024/01/01 07:29:47;;;;;;;18.10;7.67;;;;;;;2.43;90.34;99945.28;1624484;88;21051;-71
2024/01/01 07:32:16;;;;;;;17.77;7.58;;;;;;;2.45;90.37;99945.13;1624060;88;21019;-70
2024/01/01 07:34:44;;;;;;;14.50;7.15;;;;;;;2.44;90.36;99937.52;1619898;88;21007;-72
2024/01/01 07:37:13;;;;;;;14.98;7.62;;;;;;;2.44;90.37;99935.31;1623934;88;21064;-72
2024/01/01 07:39:42;;;;;;;20.68;9.45;;;;;;;2.43;90.34;99934.47;1641761;86;21058;-71
2024/01/01 07:42:10;;;;;;;18.90;8.65;;;;;;;2.42;90.35;99927.36;1623961;88;21147;-72
2024/01/01 07:44:40;;;;;;;19.60;9.65;;;;;;;2.44;90.49;99925.85;1599044;88;21063;-71
2024/01/01 07:47:10;;;;;;;18.50;8.40;;;;;;;2.43;90.58;99920.09;1623954;88;21080;-72
2024/01/01 07:49:39;;;;;;;17.00;8.18;;;;;;;2.45;90.65;99912.68;1623929;88;21067;-71
2024/01/01 07:52:07;;;;;;;14.28;7.62;;;;;;;2.45;90.67;99912.17;1624044;88;21047;-70
2024/01/01 07:54:38;;;;;;;14.68;7.67;;;;;;;2.49;90.77;99912.70;1599432;88;21353;-71
2024/01/01 07:57:06;;;;;;;17.45;7.85;;;;;;;2.50;90.71;99911.70;1624036;88;21483;-70
2024/01/01 07:59:35;;;;;;;14.10;7.37;;;;;;;2.51;90.82;99908.84;1624178;88;21058;-72
2024/01/01 08:02:03;;;;;;;15.45;7.75;;;;;;;2.56;90.87;99913.77;1599237;88;21475;-71
2024/01/01 08:04:32;;;;;;;17.32;8.03;;;;;;;2.59;90.79;99912.61;1624082;88;21471;-71
2024/01/01 08:07:00;;;;;;;15.68;7.78;;;;;;;2.61;90.78;99908.77;1624167;88;21023;-71
2024/01/01 08:09:29;;;;;;;16.62;7.78;;;;;;;2.63;90.71;99905.91;1624012;88;21075;-72
2024/01/01 08:11:57;;;;;;;14.43;7.67;;;;;;;2.65;90.67;99906.59;1625846;87;21499;-70
2024/01/01 08:14:26;;;;;;;16.60;8.20;;;;;;;2.67;90.70;99899.17;1633144;88;21143;-71
2024/01/01 08:16:54;;;;;;;15.25;7.85;;;;;;;2.68;90.74;99911.18;1623801;88;21119;-71
2024/01/01 08:19:23;;;;;;;12.68;7.37;;;;;;;2.72;90.80;99892.27;1633004;88;21047;-71
2024/01/01 08:21:52;;;;;;;14.55;7.10;;;;;;;2.75;90.67;99893.30;1623530;88;21084;-72
2024/01/01 08:24:20;;;;;;;12.40;6.70;;;;;;;2.76;90.63;99882.83;1623582;88;21095;-70
2024/01/01 08:26:49;;;;;;;13.28;7.42;;;;;;;2.76;90.59;99881.48;1585269;88;21098;-73
2024/01/01 08:29:17;;;;;;;12.95;6.83;;;;;;;2.79;90.62;99870.33;1623676;88;21008;-72
2024/01/01 08:31:46;;;;;;;13.08;7.08;;;;;;;2.83;90.63;99869.51;1633105;87;21463;-72
2024/01/01 08:34:15;;;;;;;12.50;7.25;;;;;;;2.84;90.51;99868.50;1633026;88;21055;-71
2024/01/01 08:36:43;;;;;;;10.95;6.25;;;;;;;2.83;90.35;99857.34;1612988;88;21059;-70
2024/01/01 08:39:12;;;;;;;12.47;6.30;;;;;;;2.83;90.37;99864.95;1623597;88;21043;-72
2024/01/01 08:41:44;;;;;;;11.68;6.70;;;;;;;2.87;90.29;99862.77;1623808;87;21103;-71
2024/01/01 08:44:12;;;;;;;12.55;6.92;;;;;;;2.88;90.21;99855.50;1633005;88;21026;-70
2024/01/01 08:46:41;;;;;;;27.73;10.88;;;;;;;2.91;90.24;99851.96;1633197;88;21070;-70
2024/01/01 08:49:09;;;;;;;24.63;10.53;;;;;;;2.96;90.24;99850.13;1623699;88;22030;-70
2024/01/01 08:51:38;;;;;;;20.10;9.73;;;;;;;3.00;90.25;99833.91;1605667;88;21031;-70
2024/01/01 08:54:07;;;;;;;18.05;9.10;;;;;;;3.04;90.20;99852.86;1623576;88;21566;-70
2024/01/01 08:56:35;;;;;;;16.85;7.28;;;;;;;3.07;90.13;99826.32;1605776;88;21102;-69
2024/01/01 08:59:03;;;;;;;13.25;6.50;;;;;;;3.10;90.04;99817.03;1623550;87;21032;-72
2024/01/01 09:01:32;;;;;;;14.38;7.45;;;;;;;3.13;89.94;99806.72;1633368;86;21058;-71
2024/01/01 09:04:04;;;;;;;15.90;7.28;;;;;;;3.18;89.96;99811.64;1656328;86;21574;-70
2024/01/01 09:06:30;;;;;;;13.13;6.95;;;;;;;3.19;89.81;99805.21;1605885;88;21115;-71
2024/01/01 09:08:59;;;;;;;14.85;7.90;;;;;;;3.22;89.69;99813.00;1605654;88;21023;-70
2024/01/01 09:11:27;;;;;;;15.40;7.78;;;;;;;3.23;89.54;99808.44;1605633;88;21099;-71
2024/01/01 09:13:56;;;;;;;15.63;8.13;;;;;;;3.23;89.55;99801.16;1623509;88;21071;-69
2024/01/01 09:16:29;;;;;;;17.82;8.30;;;;;;;3.28;89.56;99811.53;1623670;88;21058;-70
2024/01/01 09:18:57;;;;;;;14.47;7.78;;;;;;;3.31;89.55;99802.56;1623610;88;21126;-71
2024/01/01 09:21:26;;;;;;;12.25;6.87;;;;;;;3.36;89.44;99785.82;1623707;88;21035;-70
2024/01/01 09:24:00;;;;;;;14.60;7.33;;;;;;;3.39;89.28;99799.88;1633064;88;21062;-72
2024/01/01 09:26:25;;;;;;;15.45;7.15;;;;;;;3.42;89.27;99798.19;1633407;86;21023;-71
2024/01/01 09:28:54;;;;;;;16.17;7.90;;;;;;;3.44;89.18;99790.75;1623514;88;21573;-71
2024/01/01 09:31:22;;;;;;;15.85;8.05;;;;;;;3.48;89.07;99789.91;1633218;88;21050;-73
2024/01/01 09:33:51;;;;;;;14.93;7.72;;;;;;;3.49;89.00;99784.83;1623638;87;21542;-72
2024/01/01 09:36:20;;;;;;;16.00;8.00;;;;;;;3.52;88.95;99783.64;1623612;88;21760;-70
2024/01/01 09:38:48;;;;;;;18.07;8.43;;;;;;;3.53;88.89;99768.58;1605517;88;21047;-71
2024/01/01 09:41:17;;;;;;;15.63;7.97;;;;;;;3.55;88.76;99759.78;1623641;88;21122;-70
2024/01/01 09:43:47;;;;;;;15.32;8.18;;;;;;;3.59;88.78;99765.20;1633003;88;21079;-71
2024/01/01 09:46:17;;;;;;;15.70;8.85;;;;;;;3.62;88.77;99749.96;1613259;88;21019;-72
2024/01/01 09:48:46;;;;;;;18.60;8.85;;;;;;;3.68;88.66;99749.80;1633073;88;21479;-71
2024/01/01 09:51:14;;;;;;;18.50;9.20;;;;;;;3.73;88.62;99754.20;1633059;88;21007;-71
2024/01/01 09:53:46;;;;;;;22.40;10.28;;;;;;;3.77;88.50;99751.48;1623686;88;21134;-70
2024/01/01 09:56:15;;;;;;;22.40;9.05;;;;;;;3.79;88.38;99743.52;1623557;88;21059;-71
2024/01/01 09:58:44;;;;;;;18.40;8.30;;;;;;;3.80;88.30;99748.44;1623552;88;21553;-70
2024/01/01 10:01:18;;;;;;;16.65;8.55;;;;;;;3.82;88.22;99743.18;1632969;88;21117;-71
2024/01/01 10:04:07;;;;;;;19.50;9.08;;;;;;;3.81;88.05;99744.20;1623533;87;21187;-71
2024/01/01 10:06:36;;;;;;;16.65;8.83;;;;;;;3.81;88.04;99744.20;1623779;88;21024;-72
2024/01/01 10:09:08;;;;;;;16.20;8.58;;;;;;;3.84;88.11;99745.72;1632921;88;21533;-71
2024/01/01 10:11:42;;;;;;;18.87;9.73;;;;;;;3.84;88.05;99736.23;1623621;88;21008;-71
2024/01/01 10:14:12;;;;;;;15.38;8.45;;;;;;;3.86;88.11;99728.78;1623536;88;21534;-71
2024/01/01 10:16:42;;;;;;;17.25;9.33;;;;;;;3.88;88.09;99725.39;1623690;88;21035;-71
2024/01/01 10:19:12;;;;;;;16.57;9.18;;;;;;;3.93;88.19;99725.76;1623552;88;21074;-70
2024/01/01 10:21:41;;;;;;;18.85;9.43;;;;;;;3.97;88.18;99726.27;1632956;87;21530;-71
2024/01/01 10:24:18;;;;;;;19.20;9.80;;;;;;;4.03;88.12;99721.50;1623585;88;21087;-71
2024/01/01 10:26:48;;;;;;;20.23;9.80;;;;;;;4.07;88.09;99720.14;1625747;87;21066;-72
2024/01/01 10:29:18;;;;;;;18.73;9.43;;;;;;;4.09;88.00;99702.69;1633071;88;21015;-71
2024/01/01 10:31:48;;;;;;;15.78;9.00;;;;;;;4.13;87.92;99700.47;1623530;88;21083;-72
2024/01/01 10:34:18;;;;;;;14.85;8.85;;;;;;;4.13;87.86;99686.41;1605774;88;21067;-71
2024/01/01 10:36:47;;;;;;;20.02;9.50;;;;;;;4.18;87.80;99679.11;1623588;88;21067;-72
2024/01/01 10:39:15;;;;;;;17.65;9.70;;;;;;;4.22;87.63;99683.16;1632910;88;21035;-71
2024/01/01 10:41:43;;;;;;;16.30;8.93;;;;;;;4.25;87.55;99679.25;1633131;88;21078;-71
2024/01/01 10:44:12;;;;;;;19.25;9.50;;;;;;;4.28;87.51;99677.55;1623583;88;21063;-71
2024/01/01 10:46:41;;;;;;;17.55;8.88;;;;;;;4.32;87.56;99676.18;1633086;88;21063;-72
2024/01/01 10:49:17;;;;;;;21.57;9.05;;;;;;;4.37;87.48;99665.65;1632944;88;21086;-71
2024/01/01 10:52:16;;;;;;;19.75;9.55;;;;;;;4.41;87.39;99654.78;1632918;86;21106;-71
2024/01/01 10:55:25;;;;;;;18.67;9.33;;;;;;;4.42;87.25;99647.83;1633122;88;20995;-70
2024/01/01 10:58:14;;;;;;;20.77;10.00;;;;;;;4.43;87.08;99633.75;1632947;88;21023;-71
2024/01/01 11:00:53;;;;;;;21.68;10.10;;;;;;;4.44;87.09;99636.80;1609299;87;21094;-72
2024/01/01 11:03:22;;;;;;;19.23;10.40;;;;;;;4.47;87.11;99643.23;1632562;88;21007;-72
2024/01/01 11:05:51;;;;;;;21.12;10.30;;;;;;;4.52;87.10;99636.76;1623710;88;21083;-72
2024/01/01 11:08:28;;;;;;;19.42;10.63;;;;;;;4.56;87.01;99635.41;1633132;88;21046;-72
2024/01/01 11:10:57;;;;;;;20.68;10.32;;;;;;;4.60;86.87;99620.98;1623672;88;21452;-72
2024/01/01 11:13:34;;;;;;;17.40;9.80;;;;;;;4.61;86.76;99606.39;1629504;87;21513;-71
2024/01/01 11:16:04;;;;;;;21.27;10.55;;;;;;;4.64;86.68;99612.30;1624218;88;21011;-70
2024/01/01 11:18:37;;;;;;;24.32;12.05;;;;;;;4.65;86.61;99595.00;1624020;88;21031;-71
2024/01/01 11:21:08;;;;;;;19.77;9.95;;;;;;;4.69;86.57;99594.12;1623834;87;21079;-72
2024/01/01 11:23:45;;;;;;;18.05;10.28;;;;;;;4.73;86.49;99590.03;1624082;88;21009;-72
2024/01/01 11:26:34;;;;;;;;;;;;;;;4.76;86.34;99589.67;1626628;88;21031;-72
2024/01/01 11:29:20;;;;;;;23.42;10.88;;;;;;;4.76;86.17;99593.23;1624191;88;20222;-70
2024/01/01 11:31:49;;;;;;;16.50;7.70;;;;;;;4.75;86.14;99593.41;1624621;88;21067;-71
2024/01/01 11:34:18;;;;;;;20.77;10.25;;;;;;;4.76;86.06;99591.88;1620084;88;21055;-71